Terminal Aerodrome Forecast
Issued by NWS Knoxville/Tri Cities, TN

Home | Current Version | Previous Version | Text Only | Print | Product List | Glossary On
Versions: 1 2 3 4 5 6 7 8 9 10 11 12 13 14 15 16 17 18 19 20 21 22
000
FTUS44 KMRX 242338
TAFTRI
TAF
KTRI 242338Z 2500/2524 VRB04G14KT P6SM VCTS SCT025 OVC040CB
     FM250200 29004KT P6SM BKN050
     FM250700 26005KT 5SM BR OVC015
     FM251600 25010G18KT 4SM -RA BR OVC015
     FM252000 25011G20KT 3SM -RA BR OVC010=

USA.gov is the U.S. government's official web portal to all federal, state and local government web resources and services.